sensor_id;sensor_type;location;lat;lon;timestamp;P1;durP1;ratioP1;P2;durP2;ratioP2
11699;SDS011;5906;51.660;6.674;2023-09-08T00:00:57;14.03;;;9.03;;
11699;SDS011;5906;51.660;6.674;2023-09-08T00:03:24;13.33;;;8.47;;
11699;SDS011;5906;51.660;6.674;2023-09-08T00:05:51;10.17;;;7.60;;
11699;SDS011;5906;51.660;6.674;2023-09-08T00:08:18;13.30;;;8.70;;
11699;SDS011;5906;51.660;6.674;2023-09-08T00:10:45;14.77;;;9.17;;
11699;SDS011;5906;51.660;6.674;2023-09-08T00:13:12;14.03;;;9.00;;
11699;SDS011;5906;51.660;6.674;2023-09-08T00:15:39;13.80;;;9.10;;
11699;SDS011;5906;51.660;6.674;2023-09-08T00:18:06;12.33;;;8.70;;
11699;SDS011;5906;51.660;6.674;2023-09-08T00:20:33;17.23;;;8.93;;
11699;SDS011;5906;51.660;6.674;2023-09-08T00:23:01;16.00;;;8.53;;
11699;SDS011;5906;51.660;6.674;2023-09-08T00:25:28;11.57;;;8.47;;
11699;SDS011;5906;51.660;6.674;2023-09-08T00:27:55;13.07;;;8.63;;
11699;SDS011;5906;51.660;6.674;2023-09-08T00:30:22;14.60;;;8.87;;
11699;SDS011;5906;51.660;6.674;2023-09-08T00:32:49;10.37;;;8.23;;
11699;SDS011;5906;51.660;6.674;2023-09-08T00:35:16;12.03;;;8.90;;
11699;SDS011;5906;51.660;6.674;2023-09-08T00:37:44;13.23;;;9.63;;
11699;SDS011;5906;51.660;6.674;2023-09-08T00:40:11;11.90;;;8.80;;
11699;SDS011;5906;51.660;6.674;2023-09-08T00:42:38;14.60;;;9.13;;
11699;SDS011;5906;51.660;6.674;2023-09-08T00:45:05;12.70;;;8.80;;
11699;SDS011;5906;51.660;6.674;2023-09-08T00:47:33;18.10;;;8.70;;
11699;SDS011;5906;51.660;6.674;2023-09-08T00:50:02;13.73;;;8.80;;
11699;SDS011;5906;51.660;6.674;2023-09-08T00:52:30;19.93;;;9.90;;
11699;SDS011;5906;51.660;6.674;2023-09-08T00:54:59;13.03;;;8.53;;
11699;SDS011;5906;51.660;6.674;2023-09-08T00:57:26;13.67;;;9.33;;
11699;SDS011;5906;51.660;6.674;2023-09-08T00:59:53;14.83;;;8.93;;
11699;SDS011;5906;51.660;6.674;2023-09-08T01:02:21;14.40;;;8.77;;
11699;SDS011;5906;51.660;6.674;2023-09-08T01:04:49;22.30;;;9.70;;
11699;SDS011;5906;51.660;6.674;2023-09-08T01:07:16;13.20;;;9.70;;
11699;SDS011;5906;51.660;6.674;2023-09-08T01:09:46;12.73;;;9.40;;
11699;SDS011;5906;51.660;6.674;2023-09-08T01:12:14;14.90;;;9.87;;
11699;SDS011;5906;51.660;6.674;2023-09-08T01:14:42;12.23;;;9.67;;
11699;SDS011;5906;51.660;6.674;2023-09-08T01:17:09;17.20;;;9.53;;
11699;SDS011;5906;51.660;6.674;2023-09-08T01:19:36;13.33;;;8.83;;
11699;SDS011;5906;51.660;6.674;2023-09-08T01:22:39;15.47;;;9.87;;
11699;SDS011;5906;51.660;6.674;2023-09-08T01:25:35;16.40;;;10.30;;
11699;SDS011;5906;51.660;6.674;2023-09-08T01:28:13;13.40;;;9.37;;
11699;SDS011;5906;51.660;6.674;2023-09-08T01:30:42;16.10;;;10.00;;
11699;SDS011;5906;51.660;6.674;2023-09-08T01:33:09;14.10;;;9.00;;
11699;SDS011;5906;51.660;6.674;2023-09-08T01:35:36;17.40;;;9.73;;
11699;SDS011;5906;51.660;6.674;2023-09-08T01:38:04;23.30;;;9.77;;
11699;SDS011;5906;51.660;6.674;2023-09-08T01:40:31;15.07;;;9.47;;
11699;SDS011;5906;51.660;6.674;2023-09-08T01:42:58;12.00;;;9.63;;
11699;SDS011;5906;51.660;6.674;2023-09-08T01:45:25;16.20;;;9.93;;
11699;SDS011;5906;51.660;6.674;2023-09-08T01:47:52;14.53;;;9.37;;
11699;SDS011;5906;51.660;6.674;2023-09-08T01:50:19;12.80;;;8.63;;
11699;SDS011;5906;51.660;6.674;2023-09-08T01:52:48;16.73;;;10.27;;
11699;SDS011;5906;51.660;6.674;2023-09-08T01:55:15;18.53;;;10.00;;
11699;SDS011;5906;51.660;6.674;2023-09-08T01:57:46;13.27;;;9.30;;
11699;SDS011;5906;51.660;6.674;2023-09-08T02:00:13;11.93;;;8.90;;
11699;SDS011;5906;51.660;6.674;2023-09-08T02:02:41;12.20;;;8.50;;
11699;SDS011;5906;51.660;6.674;2023-09-08T02:05:08;12.43;;;8.23;;
11699;SDS011;5906;51.660;6.674;2023-09-08T02:07:35;12.00;;;9.53;;
11699;SDS011;5906;51.660;6.674;2023-09-08T02:10:03;13.80;;;10.00;;
11699;SDS011;5906;51.660;6.674;2023-09-08T02:12:30;22.07;;;10.40;;
11699;SDS011;5906;51.660;6.674;2023-09-08T02:14:57;19.27;;;9.13;;
11699;SDS011;5906;51.660;6.674;2023-09-08T02:17:24;13.17;;;9.00;;
11699;SDS011;5906;51.660;6.674;2023-09-08T02:19:52;14.80;;;9.10;;
11699;SDS011;5906;51.660;6.674;2023-09-08T02:22:19;19.03;;;9.73;;
11699;SDS011;5906;51.660;6.674;2023-09-08T02:24:46;16.73;;;9.70;;
11699;SDS011;5906;51.660;6.674;2023-09-08T02:27:13;13.10;;;9.80;;
11699;SDS011;5906;51.660;6.674;2023-09-08T02:29:40;17.07;;;9.83;;
11699;SDS011;5906;51.660;6.674;2023-09-08T02:32:07;16.23;;;9.83;;
11699;SDS011;5906;51.660;6.674;2023-09-08T02:34:35;29.80;;;10.40;;
11699;SDS011;5906;51.660;6.674;2023-09-08T02:37:05;12.43;;;9.70;;
11699;SDS011;5906;51.660;6.674;2023-09-08T02:39:32;15.60;;;9.37;;
11699;SDS011;5906;51.660;6.674;2023-09-08T02:41:59;11.60;;;9.10;;
11699;SDS011;5906;51.660;6.674;2023-09-08T02:44:26;14.37;;;10.00;;
11699;SDS011;5906;51.660;6.674;2023-09-08T02:46:53;18.30;;;10.27;;
11699;SDS011;5906;51.660;6.674;2023-09-08T02:49:20;16.13;;;9.40;;
11699;SDS011;5906;51.660;6.674;2023-09-08T02:51:48;16.43;;;9.03;;
11699;SDS011;5906;51.660;6.674;2023-09-08T02:54:15;12.90;;;9.80;;
11699;SDS011;5906;51.660;6.674;2023-09-08T02:56:42;14.30;;;10.17;;
11699;SDS011;5906;51.660;6.674;2023-09-08T02:59:10;13.50;;;9.67;;
11699;SDS011;5906;51.660;6.674;2023-09-08T03:01:37;13.27;;;8.83;;
11699;SDS011;5906;51.660;6.674;2023-09-08T03:04:04;18.20;;;9.53;;
11699;SDS011;5906;51.660;6.674;2023-09-08T03:06:32;19.20;;;10.63;;
11699;SDS011;5906;51.660;6.674;2023-09-08T03:09:00;13.63;;;10.03;;
11699;SDS011;5906;51.660;6.674;2023-09-08T03:11:27;20.13;;;10.00;;
11699;SDS011;5906;51.660;6.674;2023-09-08T03:13:55;12.50;;;9.57;;
11699;SDS011;5906;51.660;6.674;2023-09-08T03:16:22;19.50;;;9.97;;
11699;SDS011;5906;51.660;6.674;2023-09-08T03:18:49;15.67;;;10.30;;
11699;SDS011;5906;51.660;6.674;2023-09-08T03:21:16;13.80;;;9.63;;
11699;SDS011;5906;51.660;6.674;2023-09-08T03:23:43;21.50;;;10.93;;
11699;SDS011;5906;51.660;6.674;2023-09-08T03:26:12;18.63;;;10.67;;
11699;SDS011;5906;51.660;6.674;2023-09-08T03:28:41;17.40;;;10.10;;
11699;SDS011;5906;51.660;6.674;2023-09-08T03:31:09;13.90;;;9.80;;
11699;SDS011;5906;51.660;6.674;2023-09-08T03:33:36;18.00;;;10.43;;
11699;SDS011;5906;51.660;6.674;2023-09-08T03:36:03;14.17;;;10.47;;
11699;SDS011;5906;51.660;6.674;2023-09-08T03:38:31;20.37;;;10.23;;
11699;SDS011;5906;51.660;6.674;2023-09-08T03:40:58;19.50;;;10.80;;
11699;SDS011;5906;51.660;6.674;2023-09-08T03:43:25;16.63;;;10.70;;
11699;SDS011;5906;51.660;6.674;2023-09-08T03:45:52;13.63;;;10.30;;
11699;SDS011;5906;51.660;6.674;2023-09-08T03:48:20;14.70;;;10.83;;
11699;SDS011;5906;51.660;6.674;2023-09-08T03:50:47;15.53;;;11.10;;
11699;SDS011;5906;51.660;6.674;2023-09-08T03:53:14;15.77;;;10.70;;
11699;SDS011;5906;51.660;6.674;2023-09-08T03:55:41;18.63;;;10.77;;
11699;SDS011;5906;51.660;6.674;2023-09-08T03:58:08;14.27;;;10.30;;
11699;SDS011;5906;51.660;6.674;2023-09-08T04:00:35;17.70;;;12.10;;
11699;SDS011;5906;51.660;6.674;2023-09-08T04:03:03;20.93;;;10.87;;
11699;SDS011;5906;51.660;6.674;2023-09-08T04:05:30;23.33;;;11.70;;
11699;SDS011;5906;51.660;6.674;2023-09-08T04:07:57;22.93;;;12.70;;
11699;SDS011;5906;51.660;6.674;2023-09-08T04:10:24;14.93;;;10.60;;
11699;SDS011;5906;51.660;6.674;2023-09-08T04:12:52;18.40;;;10.53;;
11699;SDS011;5906;51.660;6.674;2023-09-08T04:15:18;19.07;;;11.50;;
11699;SDS011;5906;51.660;6.674;2023-09-08T04:17:45;18.50;;;12.73;;
11699;SDS011;5906;51.660;6.674;2023-09-08T04:20:13;18.67;;;11.77;;
11699;SDS011;5906;51.660;6.674;2023-09-08T04:22:41;15.37;;;11.10;;
11699;SDS011;5906;51.660;6.674;2023-09-08T04:25:08;18.03;;;12.20;;
11699;SDS011;5906;51.660;6.674;2023-09-08T04:27:36;22.33;;;11.63;;
11699;SDS011;5906;51.660;6.674;2023-09-08T04:30:04;15.90;;;11.20;;
11699;SDS011;5906;51.660;6.674;2023-09-08T04:32:32;14.27;;;9.80;;
11699;SDS011;5906;51.660;6.674;2023-09-08T04:34:59;17.10;;;10.97;;
11699;SDS011;5906;51.660;6.674;2023-09-08T04:37:26;15.63;;;11.53;;
11699;SDS011;5906;51.660;6.674;2023-09-08T04:39:53;18.73;;;12.27;;
11699;SDS011;5906;51.660;6.674;2023-09-08T04:42:20;18.40;;;12.17;;
11699;SDS011;5906;51.660;6.674;2023-09-08T04:44:48;17.63;;;11.53;;
11699;SDS011;5906;51.660;6.674;2023-09-08T04:47:15;19.00;;;11.57;;
11699;SDS011;5906;51.660;6.674;2023-09-08T04:49:42;15.80;;;10.80;;
11699;SDS011;5906;51.660;6.674;2023-09-08T04:52:10;17.03;;;11.77;;
11699;SDS011;5906;51.660;6.674;2023-09-08T04:54:37;21.03;;;12.13;;
11699;SDS011;5906;51.660;6.674;2023-09-08T04:57:05;15.97;;;11.80;;
11699;SDS011;5906;51.660;6.674;2023-09-08T04:59:47;16.13;;;11.00;;
11699;SDS011;5906;51.660;6.674;2023-09-08T05:02:15;20.87;;;12.73;;
11699;SDS011;5906;51.660;6.674;2023-09-08T05:04:42;20.63;;;11.30;;
11699;SDS011;5906;51.660;6.674;2023-09-08T05:07:09;17.83;;;12.33;;
11699;SDS011;5906;51.660;6.674;2023-09-08T05:09:36;19.03;;;12.63;;
11699;SDS011;5906;51.660;6.674;2023-09-08T05:12:03;25.23;;;12.37;;
11699;SDS011;5906;51.660;6.674;2023-09-08T05:14:32;22.67;;;13.50;;
11699;SDS011;5906;51.660;6.674;2023-09-08T05:16:59;19.70;;;11.43;;
11699;SDS011;5906;51.660;6.674;2023-09-08T05:19:26;20.10;;;12.60;;
11699;SDS011;5906;51.660;6.674;2023-09-08T05:21:54;16.83;;;11.53;;
11699;SDS011;5906;51.660;6.674;2023-09-08T05:24:22;21.40;;;14.13;;
11699;SDS011;5906;51.660;6.674;2023-09-08T05:26:49;24.37;;;12.20;;
11699;SDS011;5906;51.660;6.674;2023-09-08T05:29:16;33.13;;;11.83;;
11699;SDS011;5906;51.660;6.674;2023-09-08T05:31:43;28.07;;;12.70;;
11699;SDS011;5906;51.660;6.674;2023-09-08T05:34:10;23.63;;;12.90;;
11699;SDS011;5906;51.660;6.674;2023-09-08T05:36:37;19.23;;;12.30;;
11699;SDS011;5906;51.660;6.674;2023-09-08T05:39:06;18.77;;;12.17;;
11699;SDS011;5906;51.660;6.674;2023-09-08T05:41:33;21.00;;;11.40;;
11699;SDS011;5906;51.660;6.674;2023-09-08T05:44:00;21.97;;;12.87;;
11699;SDS011;5906;51.660;6.674;2023-09-08T05:46:28;22.20;;;12.83;;
11699;SDS011;5906;51.660;6.674;2023-09-08T05:48:55;23.47;;;12.90;;
11699;SDS011;5906;51.660;6.674;2023-09-08T05:51:22;20.20;;;12.83;;
11699;SDS011;5906;51.660;6.674;2023-09-08T05:53:49;22.03;;;14.90;;
11699;SDS011;5906;51.660;6.674;2023-09-08T05:56:17;20.30;;;13.70;;
11699;SDS011;5906;51.660;6.674;2023-09-08T05:58:45;21.80;;;13.33;;
11699;SDS011;5906;51.660;6.674;2023-09-08T06:01:12;28.43;;;13.50;;
11699;SDS011;5906;51.660;6.674;2023-09-08T06:03:39;24.90;;;13.17;;
11699;SDS011;5906;51.660;6.674;2023-09-08T06:06:07;20.37;;;13.07;;
11699;SDS011;5906;51.660;6.674;2023-09-08T06:08:34;30.10;;;13.60;;
11699;SDS011;5906;51.660;6.674;2023-09-08T06:11:01;25.23;;;12.13;;
11699;SDS011;5906;51.660;6.674;2023-09-08T06:13:28;20.80;;;12.77;;
11699;SDS011;5906;51.660;6.674;2023-09-08T06:15:55;20.00;;;12.90;;
11699;SDS011;5906;51.660;6.674;2023-09-08T06:18:22;25.53;;;13.17;;
11699;SDS011;5906;51.660;6.674;2023-09-08T06:20:50;20.93;;;13.00;;
11699;SDS011;5906;51.660;6.674;2023-09-08T06:23:19;19.43;;;12.87;;
11699;SDS011;5906;51.660;6.674;2023-09-08T06:25:46;17.77;;;12.70;;
11699;SDS011;5906;51.660;6.674;2023-09-08T06:28:13;18.17;;;13.07;;
11699;SDS011;5906;51.660;6.674;2023-09-08T06:30:40;28.73;;;13.30;;
11699;SDS011;5906;51.660;6.674;2023-09-08T06:33:10;16.00;;;12.00;;
11699;SDS011;5906;51.660;6.674;2023-09-08T06:35:37;19.07;;;12.60;;
11699;SDS011;5906;51.660;6.674;2023-09-08T06:38:03;19.30;;;12.60;;
11699;SDS011;5906;51.660;6.674;2023-09-08T06:40:30;21.10;;;13.60;;
11699;SDS011;5906;51.660;6.674;2023-09-08T06:42:57;18.73;;;12.80;;
11699;SDS011;5906;51.660;6.674;2023-09-08T06:45:28;20.50;;;13.30;;
11699;SDS011;5906;51.660;6.674;2023-09-08T06:47:54;17.53;;;12.00;;
11699;SDS011;5906;51.660;6.674;2023-09-08T06:50:22;18.13;;;12.33;;
11699;SDS011;5906;51.660;6.674;2023-09-08T06:52:49;17.50;;;12.97;;
11699;SDS011;5906;51.660;6.674;2023-09-08T06:55:17;21.67;;;10.60;;
11699;SDS011;5906;51.660;6.674;2023-09-08T06:57:44;14.17;;;9.83;;
11699;SDS011;5906;51.660;6.674;2023-09-08T07:00:11;14.13;;;10.20;;
11699;SDS011;5906;51.660;6.674;2023-09-08T07:02:39;14.00;;;10.30;;
11699;SDS011;5906;51.660;6.674;2023-09-08T07:05:06;17.03;;;9.87;;
11699;SDS011;5906;51.660;6.674;2023-09-08T07:07:35;17.20;;;8.70;;
11699;SDS011;5906;51.660;6.674;2023-09-08T07:10:02;13.77;;;8.97;;
11699;SDS011;5906;51.660;6.674;2023-09-08T07:12:30;12.60;;;9.60;;
11699;SDS011;5906;51.660;6.674;2023-09-08T07:14:57;12.47;;;9.33;;
11699;SDS011;5906;51.660;6.674;2023-09-08T07:17:26;19.40;;;9.13;;
11699;SDS011;5906;51.660;6.674;2023-09-08T07:19:53;18.30;;;9.33;;
11699;SDS011;5906;51.660;6.674;2023-09-08T07:22:20;27.23;;;9.07;;
11699;SDS011;5906;51.660;6.674;2023-09-08T07:24:46;13.50;;;8.70;;
11699;SDS011;5906;51.660;6.674;2023-09-08T07:27:13;12.60;;;8.53;;
11699;SDS011;5906;51.660;6.674;2023-09-08T07:29:40;19.60;;;8.27;;
11699;SDS011;5906;51.660;6.674;2023-09-08T07:32:08;10.13;;;7.63;;
11699;SDS011;5906;51.660;6.674;2023-09-08T07:34:35;11.77;;;8.73;;
11699;SDS011;5906;51.660;6.674;2023-09-08T07:37:02;19.50;;;8.27;;
11699;SDS011;5906;51.660;6.674;2023-09-08T07:39:29;14.93;;;8.20;;
11699;SDS011;5906;51.660;6.674;2023-09-08T07:41:57;11.00;;;7.13;;
11699;SDS011;5906;51.660;6.674;2023-09-08T07:44:27;12.33;;;7.53;;
11699;SDS011;5906;51.660;6.674;2023-09-08T07:46:55;11.70;;;7.53;;
11699;SDS011;5906;51.660;6.674;2023-09-08T07:49:23;14.83;;;6.70;;
11699;SDS011;5906;51.660;6.674;2023-09-08T07:51:50;13.13;;;7.33;;
11699;SDS011;5906;51.660;6.674;2023-09-08T07:54:17;8.07;;;6.23;;
11699;SDS011;5906;51.660;6.674;2023-09-08T07:56:46;17.23;;;7.33;;
11699;SDS011;5906;51.660;6.674;2023-09-08T07:59:13;10.50;;;6.43;;
11699;SDS011;5906;51.660;6.674;2023-09-08T08:01:40;12.43;;;7.53;;
11699;SDS011;5906;51.660;6.674;2023-09-08T08:04:07;28.90;;;8.37;;
11699;SDS011;5906;51.660;6.674;2023-09-08T08:06:34;15.93;;;7.80;;
11699;SDS011;5906;51.660;6.674;2023-09-08T08:09:01;16.60;;;8.80;;
11699;SDS011;5906;51.660;6.674;2023-09-08T08:11:28;13.33;;;7.70;;
11699;SDS011;5906;51.660;6.674;2023-09-08T08:13:56;17.70;;;7.70;;
11699;SDS011;5906;51.660;6.674;2023-09-08T08:16:23;18.90;;;9.00;;
11699;SDS011;5906;51.660;6.674;2023-09-08T08:18:50;18.07;;;8.17;;
11699;SDS011;5906;51.660;6.674;2023-09-08T08:21:19;12.50;;;7.00;;
11699;SDS011;5906;51.660;6.674;2023-09-08T08:23:46;11.00;;;7.73;;
11699;SDS011;5906;51.660;6.674;2023-09-08T08:26:12;15.00;;;7.30;;
11699;SDS011;5906;51.660;6.674;2023-09-08T08:28:40;21.73;;;7.63;;
11699;SDS011;5906;51.660;6.674;2023-09-08T08:31:06;11.10;;;6.77;;
11699;SDS011;5906;51.660;6.674;2023-09-08T08:33:34;15.00;;;7.13;;
11699;SDS011;5906;51.660;6.674;2023-09-08T08:36:00;13.53;;;7.10;;
11699;SDS011;5906;51.660;6.674;2023-09-08T08:38:27;16.53;;;7.30;;
11699;SDS011;5906;51.660;6.674;2023-09-08T08:40:54;27.00;;;6.97;;
11699;SDS011;5906;51.660;6.674;2023-09-08T08:43:21;17.20;;;6.97;;
11699;SDS011;5906;51.660;6.674;2023-09-08T08:45:50;16.97;;;7.13;;
11699;SDS011;5906;51.660;6.674;2023-09-08T08:48:18;15.83;;;6.97;;
11699;SDS011;5906;51.660;6.674;2023-09-08T08:50:47;11.97;;;7.60;;
11699;SDS011;5906;51.660;6.674;2023-09-08T08:53:15;13.40;;;6.40;;
11699;SDS011;5906;51.660;6.674;2023-09-08T08:55:43;18.17;;;6.37;;
11699;SDS011;5906;51.660;6.674;2023-09-08T08:58:11;13.73;;;6.90;;
11699;SDS011;5906;51.660;6.674;2023-09-08T09:00:40;12.93;;;6.10;;
11699;SDS011;5906;51.660;6.674;2023-09-08T09:03:08;9.27;;;5.80;;
11699;SDS011;5906;51.660;6.674;2023-09-08T09:05:40;12.80;;;6.63;;
11699;SDS011;5906;51.660;6.674;2023-09-08T09:08:13;15.27;;;7.00;;
11699;SDS011;5906;51.660;6.674;2023-09-08T09:10:42;14.67;;;7.20;;
11699;SDS011;5906;51.660;6.674;2023-09-08T09:13:10;16.73;;;7.37;;
11699;SDS011;5906;51.660;6.674;2023-09-08T09:15:37;12.50;;;6.37;;
11699;SDS011;5906;51.660;6.674;2023-09-08T09:18:04;12.10;;;6.80;;
11699;SDS011;5906;51.660;6.674;2023-09-08T09:20:33;14.30;;;6.37;;
11699;SDS011;5906;51.660;6.674;2023-09-08T09:23:00;12.77;;;5.93;;
11699;SDS011;5906;51.660;6.674;2023-09-08T09:25:28;15.50;;;6.40;;
11699;SDS011;5906;51.660;6.674;2023-09-08T09:27:56;14.90;;;6.77;;
11699;SDS011;5906;51.660;6.674;2023-09-08T09:30:28;16.30;;;6.63;;
11699;SDS011;5906;51.660;6.674;2023-09-08T09:33:13;16.83;;;6.50;;
11699;SDS011;5906;51.660;6.674;2023-09-08T09:35:41;15.80;;;6.40;;
11699;SDS011;5906;51.660;6.674;2023-09-08T09:38:12;19.77;;;6.73;;
11699;SDS011;5906;51.660;6.674;2023-09-08T09:40:40;13.50;;;6.80;;
11699;SDS011;5906;51.660;6.674;2023-09-08T09:43:07;18.57;;;6.60;;
11699;SDS011;5906;51.660;6.674;2023-09-08T09:45:34;10.97;;;6.17;;
11699;SDS011;5906;51.660;6.674;2023-09-08T09:48:03;9.53;;;6.37;;
11699;SDS011;5906;51.660;6.674;2023-09-08T09:50:37;12.30;;;6.13;;
11699;SDS011;5906;51.660;6.674;2023-09-08T09:53:10;17.00;;;5.73;;
11699;SDS011;5906;51.660;6.674;2023-09-08T09:55:39;20.47;;;6.63;;
11699;SDS011;5906;51.660;6.674;2023-09-08T09:58:08;19.40;;;6.50;;
11699;SDS011;5906;51.660;6.674;2023-09-08T10:00:37;17.43;;;6.30;;
11699;SDS011;5906;51.660;6.674;2023-09-08T10:03:06;14.10;;;6.37;;
11699;SDS011;5906;51.660;6.674;2023-09-08T10:05:36;12.20;;;5.70;;
11699;SDS011;5906;51.660;6.674;2023-09-08T10:08:03;11.90;;;6.20;;
11699;SDS011;5906;51.660;6.674;2023-09-08T10:10:32;17.30;;;5.87;;
11699;SDS011;5906;51.660;6.674;2023-09-08T10:13:01;15.03;;;6.50;;
11699;SDS011;5906;51.660;6.674;2023-09-08T10:15:30;10.97;;;6.13;;
11699;SDS011;5906;51.660;6.674;2023-09-08T10:17:58;12.98;;;5.88;;
11699;SDS011;5906;51.660;6.674;2023-09-08T10:20:28;14.40;;;6.38;;
11699;SDS011;5906;51.660;6.674;2023-09-08T10:23:03;11.38;;;5.40;;
11699;SDS011;5906;51.660;6.674;2023-09-08T10:25:40;9.25;;;6.05;;
11699;SDS011;5906;51.660;6.674;2023-09-08T10:28:10;8.68;;;5.53;;
11699;SDS011;5906;51.660;6.674;2023-09-08T10:30:38;33.58;;;6.05;;
11699;SDS011;5906;51.660;6.674;2023-09-08T10:33:06;16.73;;;5.78;;
11699;SDS011;5906;51.660;6.674;2023-09-08T10:35:33;9.38;;;6.00;;
11699;SDS011;5906;51.660;6.674;2023-09-08T10:40:53;10.10;;;6.00;;
11699;SDS011;5906;51.660;6.674;2023-09-08T10:43:56;10.45;;;6.00;;
11699;SDS011;5906;51.660;6.674;2023-09-08T10:46:26;9.45;;;6.05;;
11699;SDS011;5906;51.660;6.674;2023-09-08T10:48:54;16.40;;;6.97;;
11699;SDS011;5906;51.660;6.674;2023-09-08T10:51:27;10.00;;;6.28;;
11699;SDS011;5906;51.660;6.674;2023-09-08T10:53:54;10.40;;;6.53;;
11699;SDS011;5906;51.660;6.674;2023-09-08T10:56:22;13.20;;;5.97;;
11699;SDS011;5906;51.660;6.674;2023-09-08T10:58:53;15.20;;;6.88;;
11699;SDS011;5906;51.660;6.674;2023-09-08T11:01:21;12.93;;;6.38;;
11699;SDS011;5906;51.660;6.674;2023-09-08T11:03:53;12.00;;;6.20;;
11699;SDS011;5906;51.660;6.674;2023-09-08T11:06:21;14.63;;;6.60;;
11699;SDS011;5906;51.660;6.674;2023-09-08T11:08:48;10.80;;;6.43;;
11699;SDS011;5906;51.660;6.674;2023-09-08T11:11:19;10.82;;;6.15;;
11699;SDS011;5906;51.660;6.674;2023-09-08T11:13:46;17.58;;;6.80;;
11699;SDS011;5906;51.660;6.674;2023-09-08T11:16:14;11.93;;;6.07;;
11699;SDS011;5906;51.660;6.674;2023-09-08T11:18:42;9.50;;;5.90;;
11699;SDS011;5906;51.660;6.674;2023-09-08T11:21:10;9.23;;;6.20;;
11699;SDS011;5906;51.660;6.674;2023-09-08T11:23:37;11.55;;;6.68;;
11699;SDS011;5906;51.660;6.674;2023-09-08T11:26:05;11.77;;;6.35;;
11699;SDS011;5906;51.660;6.674;2023-09-08T11:28:32;13.48;;;6.30;;
11699;SDS011;5906;51.660;6.674;2023-09-08T11:31:00;13.05;;;6.88;;
11699;SDS011;5906;51.660;6.674;2023-09-08T11:33:32;27.75;;;7.38;;
11699;SDS011;5906;51.660;6.674;2023-09-08T11:36:11;11.00;;;6.32;;
11699;SDS011;5906;51.660;6.674;2023-09-08T11:38:43;12.70;;;6.45;;
11699;SDS011;5906;51.660;6.674;2023-09-08T11:41:13;16.35;;;6.72;;
11699;SDS011;5906;51.660;6.674;2023-09-08T11:43:40;12.27;;;5.63;;
11699;SDS011;5906;51.660;6.674;2023-09-08T11:46:07;14.68;;;7.25;;
11699;SDS011;5906;51.660;6.674;2023-09-08T11:48:34;13.85;;;5.93;;
11699;SDS011;5906;51.660;6.674;2023-09-08T11:51:02;17.40;;;5.82;;
11699;SDS011;5906;51.660;6.674;2023-09-08T11:53:29;11.02;;;6.00;;
11699;SDS011;5906;51.660;6.674;2023-09-08T11:55:58;12.48;;;6.63;;
11699;SDS011;5906;51.660;6.674;2023-09-08T11:58:25;12.02;;;6.57;;
11699;SDS011;5906;51.660;6.674;2023-09-08T12:00:52;12.30;;;6.45;;
11699;SDS011;5906;51.660;6.674;2023-09-08T12:03:19;8.40;;;5.55;;
11699;SDS011;5906;51.660;6.674;2023-09-08T12:05:50;8.48;;;6.20;;
11699;SDS011;5906;51.660;6.674;2023-09-08T12:08:18;8.23;;;5.60;;
11699;SDS011;5906;51.660;6.674;2023-09-08T12:10:46;11.10;;;7.13;;
11699;SDS011;5906;51.660;6.674;2023-09-08T12:13:12;12.55;;;6.10;;
11699;SDS011;5906;51.660;6.674;2023-09-08T12:15:46;11.25;;;5.97;;
11699;SDS011;5906;51.660;6.674;2023-09-08T12:18:13;12.60;;;6.10;;
11699;SDS011;5906;51.660;6.674;2023-09-08T12:20:42;11.18;;;5.90;;
11699;SDS011;5906;51.660;6.674;2023-09-08T12:23:17;9.10;;;5.55;;
11699;SDS011;5906;51.660;6.674;2023-09-08T12:25:49;19.58;;;5.82;;
11699;SDS011;5906;51.660;6.674;2023-09-08T12:28:19;10.80;;;6.07;;
11699;SDS011;5906;51.660;6.674;2023-09-08T12:30:47;12.18;;;6.32;;
11699;SDS011;5906;51.660;6.674;2023-09-08T12:33:16;11.07;;;6.15;;
11699;SDS011;5906;51.660;6.674;2023-09-08T12:35:46;11.98;;;5.82;;
11699;SDS011;5906;51.660;6.674;2023-09-08T12:38:19;7.55;;;5.80;;
11699;SDS011;5906;51.660;6.674;2023-09-08T12:40:46;13.55;;;6.32;;
11699;SDS011;5906;51.660;6.674;2023-09-08T12:43:13;11.18;;;5.85;;
11699;SDS011;5906;51.660;6.674;2023-09-08T12:45:57;20.40;;;10.23;;
11699;SDS011;5906;51.660;6.674;2023-09-08T12:48:24;14.25;;;6.03;;
11699;SDS011;5906;51.660;6.674;2023-09-08T12:50:51;10.70;;;6.22;;
11699;SDS011;5906;51.660;6.674;2023-09-08T12:53:17;13.10;;;6.22;;
11699;SDS011;5906;51.660;6.674;2023-09-08T12:55:45;14.32;;;6.38;;
11699;SDS011;5906;51.660;6.674;2023-09-08T12:58:12;13.82;;;6.10;;
11699;SDS011;5906;51.660;6.674;2023-09-08T13:00:39;13.82;;;5.72;;
11699;SDS011;5906;51.660;6.674;2023-09-08T13:03:06;14.40;;;6.20;;
11699;SDS011;5906;51.660;6.674;2023-09-08T13:05:33;10.77;;;6.00;;
11699;SDS011;5906;51.660;6.674;2023-09-08T13:08:00;10.38;;;6.32;;
11699;SDS011;5906;51.660;6.674;2023-09-08T13:10:27;12.60;;;6.35;;
11699;SDS011;5906;51.660;6.674;2023-09-08T13:12:54;9.98;;;6.00;;
11699;SDS011;5906;51.660;6.674;2023-09-08T13:15:21;11.90;;;6.43;;
11699;SDS011;5906;51.660;6.674;2023-09-08T13:17:49;12.27;;;5.90;;
11699;SDS011;5906;51.660;6.674;2023-09-08T13:20:16;14.93;;;6.38;;
11699;SDS011;5906;51.660;6.674;2023-09-08T13:22:43;13.95;;;6.82;;
11699;SDS011;5906;51.660;6.674;2023-09-08T13:25:10;9.63;;;5.97;;
11699;SDS011;5906;51.660;6.674;2023-09-08T13:27:39;13.98;;;6.28;;
11699;SDS011;5906;51.660;6.674;2023-09-08T13:30:12;11.35;;;6.90;;
11699;SDS011;5906;51.660;6.674;2023-09-08T13:32:41;10.82;;;6.25;;
11699;SDS011;5906;51.660;6.674;2023-09-08T13:35:09;14.40;;;6.90;;
11699;SDS011;5906;51.660;6.674;2023-09-08T13:37:36;11.90;;;6.20;;
11699;SDS011;5906;51.660;6.674;2023-09-08T13:40:06;14.23;;;6.30;;
11699;SDS011;5906;51.660;6.674;2023-09-08T13:42:35;7.78;;;5.47;;
11699;SDS011;5906;51.660;6.674;2023-09-08T13:45:02;9.50;;;5.40;;
11699;SDS011;5906;51.660;6.674;2023-09-08T13:47:30;5.35;;;4.60;;
11699;SDS011;5906;51.660;6.674;2023-09-08T13:49:58;14.60;;;4.95;;
11699;SDS011;5906;51.660;6.674;2023-09-08T13:52:28;7.53;;;5.65;;
11699;SDS011;5906;51.660;6.674;2023-09-08T13:54:58;5.45;;;4.95;;
11699;SDS011;5906;51.660;6.674;2023-09-08T13:57:28;7.93;;;5.13;;
11699;SDS011;5906;51.660;6.674;2023-09-08T13:59:55;8.43;;;5.50;;
11699;SDS011;5906;51.660;6.674;2023-09-08T14:02:24;7.97;;;5.63;;
11699;SDS011;5906;51.660;6.674;2023-09-08T14:04:54;18.83;;;5.38;;
11699;SDS011;5906;51.660;6.674;2023-09-08T14:07:28;10.75;;;5.03;;
11699;SDS011;5906;51.660;6.674;2023-09-08T14:10:02;7.22;;;5.55;;
11699;SDS011;5906;51.660;6.674;2023-09-08T14:12:36;8.77;;;5.53;;
11699;SDS011;5906;51.660;6.674;2023-09-08T14:15:03;6.53;;;5.18;;
11699;SDS011;5906;51.660;6.674;2023-09-08T14:17:31;9.25;;;5.40;;
11699;SDS011;5906;51.660;6.674;2023-09-08T14:19:58;6.50;;;5.03;;
11699;SDS011;5906;51.660;6.674;2023-09-08T14:22:25;7.03;;;5.22;;
11699;SDS011;5906;51.660;6.674;2023-09-08T14:24:53;6.95;;;5.43;;
11699;SDS011;5906;51.660;6.674;2023-09-08T14:27:19;9.95;;;5.97;;
11699;SDS011;5906;51.660;6.674;2023-09-08T14:29:46;8.10;;;4.82;;
11699;SDS011;5906;51.660;6.674;2023-09-08T14:32:13;10.07;;;5.13;;
11699;SDS011;5906;51.660;6.674;2023-09-08T14:34:40;6.82;;;5.47;;
11699;SDS011;5906;51.660;6.674;2023-09-08T14:37:07;7.47;;;4.70;;
11699;SDS011;5906;51.660;6.674;2023-09-08T14:39:36;19.02;;;5.05;;
11699;SDS011;5906;51.660;6.674;2023-09-08T14:42:22;9.38;;;5.00;;
11699;SDS011;5906;51.660;6.674;2023-09-08T14:45:09;8.38;;;5.25;;
11699;SDS011;5906;51.660;6.674;2023-09-08T14:47:57;6.22;;;5.20;;
11699;SDS011;5906;51.660;6.674;2023-09-08T14:50:26;12.13;;;5.70;;
11699;SDS011;5906;51.660;6.674;2023-09-08T14:52:53;6.65;;;5.05;;
11699;SDS011;5906;51.660;6.674;2023-09-08T14:55:20;7.95;;;5.68;;